Time;durP1;ratioP1;P1;durP2;ratioP2;P2;SDS_P1;SDS_P2;PMS_P1;PMS_P2;Temp;Humidity;BMP_temperature;BMP_pressure;BME280_temperature;BME280_humidity;BME280_pressure;Samples;Min_cycle;Max_cycle;Signal;HPM_P1;HPM_P2
2022/04/07 00:01:24;;;;;;;0.52;0.52;;;;;;;-3.40;89.39;98224.34;4803594;29;20050;-82
2022/04/07 00:03:51;;;;;;;0.47;0.47;;;;;;;-3.39;89.37;98225.16;4803752;29;20408;-81
2022/04/07 00:06:18;;;;;;;0.50;0.50;;;;;;;-3.34;89.29;98225.47;4803469;29;20065;-81
2022/04/07 00:08:47;;;;;;;0.50;0.50;;;;;;;-3.35;89.18;98222.00;4803853;29;20078;-81
2022/04/07 00:11:17;;;;;;;0.47;0.47;;;;;;;-3.32;89.13;98215.56;4804049;29;20086;-80
2022/04/07 00:13:44;;;;;;;0.50;0.50;;;;;;;-3.31;89.06;98219.84;4803843;29;20055;-81
2022/04/07 00:16:11;;;;;;;0.50;0.50;;;;;;;-3.33;89.08;98222.66;4803449;29;20054;-80
2022/04/07 00:18:39;;;;;;;0.50;0.50;;;;;;;-3.31;88.97;98215.41;4802196;29;20051;-80
2022/04/07 00:21:11;;;;;;;0.52;0.52;;;;;;;-3.30;89.03;98224.13;4803349;29;20572;-82
2022/04/07 00:23:40;;;;;;;0.50;0.50;;;;;;;-3.30;89.00;98217.03;4817836;29;20058;-81
2022/04/07 00:26:08;;;;;;;0.60;0.60;;;;;;;-3.30;88.93;98216.22;4803380;29;20123;-81
2022/04/07 00:28:35;;;;;;;0.60;0.60;;;;;;;-3.31;88.74;98223.31;4803493;29;20077;-82
2022/04/07 00:31:04;;;;;;;0.50;0.50;;;;;;;-3.29;89.01;98223.16;4804052;29;20055;-82
2022/04/07 00:33:31;;;;;;;0.55;0.55;;;;;;;-3.27;88.96;98218.50;4803570;29;20059;-81
2022/04/07 00:35:58;;;;;;;0.50;0.50;;;;;;;-3.25;89.02;98218.31;4803310;29;20055;-81
2022/04/07 00:38:25;;;;;;;0.52;0.52;;;;;;;-3.25;88.99;98219.13;4805220;29;20071;-82
2022/04/07 00:40:55;;;;;;;0.50;0.50;;;;;;;-3.23;88.99;98214.50;4806110;29;20082;-82
2022/04/07 00:43:32;;;;;;;0.60;0.60;;;;;;;-3.20;88.93;98214.16;4806196;29;20051;-80
2022/04/07 00:46:01;;;;;;;0.60;0.60;;;;;;;-3.17;88.77;98215.63;4807063;29;20055;-81
2022/04/07 00:48:28;;;;;;;0.40;0.40;;;;;;;-3.19;88.67;98217.63;4806879;29;20051;-81
2022/04/07 00:50:55;;;;;;;0.30;0.30;;;;;;;-3.16;88.71;98217.28;4806748;29;20055;-80
2022/04/07 00:53:24;;;;;;;0.50;0.50;;;;;;;-3.17;88.65;98210.34;4806755;29;20515;-82
2022/04/07 00:55:51;;;;;;;0.57;0.57;;;;;;;-3.16;88.59;98212.00;4820792;29;20519;-81
2022/04/07 00:58:19;;;;;;;0.50;0.50;;;;;;;-3.15;88.59;98218.91;4807092;29;20058;-81
2022/04/07 01:00:46;;;;;;;0.50;0.50;;;;;;;-3.16;88.59;98212.81;4807017;29;20137;-81
2022/04/07 01:03:14;;;;;;;0.50;0.50;;;;;;;-3.13;88.43;98215.09;4806908;29;20372;-81
2022/04/07 01:05:42;;;;;;;0.60;0.60;;;;;;;-3.13;88.68;98209.81;4820316;29;20066;-81
2022/04/07 01:08:09;;;;;;;0.60;0.60;;;;;;;-3.12;88.45;98208.81;4806743;29;20074;-81
2022/04/07 01:10:37;;;;;;;0.60;0.60;;;;;;;-3.13;88.33;98204.53;4805382;29;20462;-80
2022/04/07 01:13:04;;;;;;;0.47;0.47;;;;;;;-3.14;88.46;98205.56;4820400;29;20054;-81
2022/04/07 01:15:32;;;;;;;0.50;0.50;;;;;;;-3.14;88.72;98205.56;4806420;29;20528;-81
2022/04/07 01:18:00;;;;;;;0.40;0.40;;;;;;;-3.14;88.52;98210.84;4817868;29;20063;-80
2022/04/07 01:20:28;;;;;;;0.55;0.55;;;;;;;-3.15;88.58;98209.16;4817830;29;20142;-81
2022/04/07 01:22:56;;;;;;;0.57;0.57;;;;;;;-3.16;88.64;98212.81;4818007;29;20047;-81
2022/04/07 01:25:30;;;;;;;0.60;0.60;;;;;;;-3.15;88.67;98211.81;4806202;29;20078;-82
2022/04/07 01:27:57;;;;;;;0.40;0.40;;;;;;;-3.12;88.81;98210.63;4806745;29;20604;-81
2022/04/07 01:30:24;;;;;;;0.60;0.60;;;;;;;-3.11;88.75;98207.03;4806536;29;20499;-81
2022/04/07 01:32:54;;;;;;;0.70;0.70;;;;;;;-3.09;88.71;98211.13;4806495;29;20051;-82
2022/04/07 01:35:22;;;;;;;0.57;0.57;;;;;;;-3.05;88.68;98208.94;4789642;29;20050;-81
2022/04/07 01:37:51;;;;;;;0.50;0.50;;;;;;;-3.00;88.69;98203.94;4805886;29;20055;-80
2022/04/07 01:40:23;;;;;;;0.55;0.55;;;;;;;-2.97;88.52;98208.06;4804804;29;20077;-79
2022/04/07 01:42:55;;;;;;;0.45;0.45;;;;;;;-2.98;88.53;98214.34;4811832;29;20466;-79
2022/04/07 01:45:23;;;;;;;0.60;0.60;;;;;;;-2.96;88.46;98209.69;4807661;29;20054;-81
2022/04/07 01:47:51;;;;;;;0.50;0.50;;;;;;;-2.95;88.47;98206.06;4822961;29;20050;-80
2022/04/07 01:50:20;;;;;;;0.40;0.40;;;;;;;-2.95;88.61;98203.41;4808290;29;20426;-78
2022/04/07 01:52:48;;;;;;;0.60;0.60;;;;;;;-2.96;88.57;98196.47;4823164;29;20058;-80
2022/04/07 01:55:16;;;;;;;0.60;0.60;;;;;;;-2.95;88.54;98198.13;4823987;29;20137;-82
2022/04/07 01:57:44;;;;;;;0.47;0.47;;;;;;;-2.93;88.60;98196.16;4822750;29;20149;-82
2022/04/07 02:00:12;;;;;;;0.40;0.40;;;;;;;-2.94;88.82;98189.22;4824171;29;20131;-81
2022/04/07 02:02:40;;;;;;;0.50;0.50;;;;;;;-2.94;88.77;98190.03;4822777;29;20054;-81
2022/04/07 02:05:09;;;;;;;0.50;0.50;;;;;;;-2.91;89.01;98199.41;4824208;29;20069;-83
2022/04/07 02:07:43;;;;;;;0.45;0.45;;;;;;;-2.89;88.66;98194.78;4809021;29;20091;-82
2022/04/07 02:10:14;;;;;;;0.60;0.60;;;;;;;-2.89;88.87;98192.13;4838371;29;20054;-82
2022/04/07 02:12:42;;;;;;;0.50;0.50;;;;;;;-2.87;88.81;98188.31;4822483;29;20086;-83
2022/04/07 02:15:10;;;;;;;0.60;0.60;;;;;;;-2.85;88.95;98188.97;4820014;29;20515;-82
2022/04/07 02:17:38;;;;;;;0.50;0.50;;;;;;;-2.80;88.84;98185.78;4822718;29;20144;-82
2022/04/07 02:20:08;;;;;;;0.70;0.70;;;;;;;-2.76;88.84;98184.44;4823654;29;20073;-82
2022/04/07 02:22:35;;;;;;;0.40;0.40;;;;;;;-2.74;89.05;98190.34;4822316;29;20061;-81
2022/04/07 02:25:04;;;;;;;0.50;0.50;;;;;;;-2.68;88.82;98192.28;4818829;29;20158;-81
2022/04/07 02:27:36;;;;;;;0.40;0.40;;;;;;;-2.64;88.62;98196.19;4804788;29;20057;-81
2022/04/07 02:30:05;;;;;;;0.50;0.50;;;;;;;-2.61;88.62;98202.94;4803629;29;20051;-81
2022/04/07 02:32:35;;;;;;;0.50;0.50;;;;;;;-2.56;88.46;98202.41;4802850;29;20058;-79
2022/04/07 02:35:08;;;;;;;0.50;0.50;;;;;;;-2.53;88.49;98204.69;4804154;29;20054;-81
2022/04/07 02:37:38;;;;;;;0.45;0.45;;;;;;;-2.49;88.34;98208.59;4803895;29;20157;-81
2022/04/07 02:40:10;;;;;;;0.60;0.60;;;;;;;-2.46;88.21;98213.53;4802161;29;20062;-81
2022/04/07 02:42:37;;;;;;;0.50;0.50;;;;;;;-2.43;88.08;98205.22;4805181;29;20062;-81
2022/04/07 02:45:05;;;;;;;0.60;0.60;;;;;;;-2.43;88.06;98206.06;4804839;29;20084;-81
2022/04/07 02:47:34;;;;;;;0.50;0.50;;;;;;;-2.43;88.03;98207.88;4805437;29;20309;-81
2022/04/07 02:50:01;;;;;;;0.70;0.70;;;;;;;-2.45;88.11;98204.63;4803883;29;20051;-81
2022/04/07 02:52:29;;;;;;;0.70;0.70;;;;;;;-2.43;88.20;98200.78;4805290;29;20050;-80
2022/04/07 02:54:56;;;;;;;0.50;0.50;;;;;;;-2.43;88.25;98205.22;4804790;29;20054;-81
2022/04/07 02:57:25;;;;;;;0.40;0.40;;;;;;;-2.42;88.24;98204.25;4803679;29;20059;-82
2022/04/07 02:59:52;;;;;;;0.52;0.52;;;;;;;-2.41;87.96;98204.06;4805259;29;20059;-81
2022/04/07 03:02:21;;;;;;;0.57;0.57;;;;;;;-2.39;88.20;98206.53;4805187;29;20086;-82
2022/04/07 03:04:49;;;;;;;0.47;0.47;;;;;;;-2.38;88.20;98207.34;4805347;29;20074;-81
2022/04/07 03:07:16;;;;;;;0.50;0.50;;;;;;;-2.35;88.18;98201.72;4805644;29;20560;-80
2022/04/07 03:09:43;;;;;;;0.40;0.40;;;;;;;-2.37;88.14;98209.81;4805017;29;20086;-80
2022/04/07 03:12:13;;;;;;;0.52;0.52;;;;;;;-2.35;88.21;98207.81;4803748;29;20055;-81
2022/04/07 03:14:45;;;;;;;0.40;0.40;;;;;;;-2.33;88.30;98207.63;4804430;29;20525;-79
2022/04/07 03:17:12;;;;;;;0.50;0.50;;;;;;;-2.32;88.34;98204.00;4804933;29;20055;-81
2022/04/07 03:19:39;;;;;;;0.50;0.50;;;;;;;-2.29;88.23;98217.66;4804663;29;20062;-81
2022/04/07 03:22:09;;;;;;;0.70;0.70;;;;;;;-2.25;88.19;98213.66;4803532;29;20058;-81
2022/04/07 03:24:37;;;;;;;0.65;0.65;;;;;;;-2.21;88.41;98191.13;4803297;29;20131;-80
2022/04/07 03:27:14;;;;;;;0.57;0.57;;;;;;;-2.15;88.21;98194.03;4804448;29;20057;-83
2022/04/07 03:29:41;;;;;;;0.57;0.57;;;;;;;-2.13;88.27;98195.50;4804474;29;20164;-82
2022/04/07 03:32:09;;;;;;;0.60;0.60;;;;;;;-2.07;88.14;98210.63;4804542;29;20098;-81
2022/04/07 03:34:36;;;;;;;0.70;0.70;;;;;;;-2.05;88.12;98195.41;4803251;29;20050;-82
2022/04/07 03:37:04;;;;;;;0.70;0.70;;;;;;;-2.02;88.18;98202.16;4803609;29;20061;-82
2022/04/07 03:39:34;;;;;;;0.50;0.50;;;;;;;-1.94;88.09;98199.41;4804238;29;20108;-83
2022/04/07 03:42:10;;;;;;;0.52;0.52;;;;;;;-1.90;87.87;98187.47;4803218;29;20088;-79
2022/04/07 03:44:37;;;;;;;0.50;0.50;;;;;;;-1.88;87.82;98179.34;4802716;29;20422;-78
2022/04/07 03:47:05;;;;;;;0.45;0.45;;;;;;;-1.78;87.79;98178.03;4801333;29;20517;-79
2022/04/07 03:49:32;;;;;;;0.57;0.57;;;;;;;-1.77;87.56;98169.09;4480666;29;10000582;-82
2022/04/07 03:51:59;;;;;;;0.60;0.60;;;;;;;-1.69;87.39;98167.38;4817940;29;20479;-78
2022/04/07 03:54:26;;;;;;;0.65;0.65;;;;;;;-1.56;87.34;98170.16;4818803;29;20099;-82
2022/04/07 03:56:53;;;;;;;0.50;0.50;;;;;;;-1.48;86.98;98177.97;4818899;29;20256;-81
2022/04/07 03:59:20;;;;;;;0.50;0.50;;;;;;;-1.54;86.90;98163.66;4817674;29;20054;-82
2022/04/07 04:01:50;;;;;;;0.63;0.63;;;;;;;-1.36;86.28;98181.75;4818861;29;20522;-80
2022/04/07 04:04:22;;;;;;;0.60;0.60;;;;;;;-1.37;86.38;98166.91;4818820;29;20070;-80
2022/04/07 04:06:49;;;;;;;0.50;0.50;;;;;;;-1.35;86.21;98172.78;4818977;29;20050;-81
2022/04/07 04:09:16;;;;;;;0.47;0.47;;;;;;;-1.31;85.88;98187.31;4820547;29;20058;-80
2022/04/07 04:11:43;;;;;;;0.40;0.40;;;;;;;-1.27;85.80;98178.97;4822430;29;20495;-80
2022/04/07 04:14:14;;;;;;;0.70;0.70;;;;;;;-1.18;85.42;98178.66;4822315;29;20054;-79
2022/04/07 04:16:44;;;;;;;0.50;0.50;;;;;;;-1.15;85.23;98175.63;4822037;29;20066;-80
2022/04/07 04:19:12;;;;;;;0.73;0.73;;;;;;;-1.06;84.76;98188.75;4820427;29;20561;-80
2022/04/07 04:21:39;;;;;;;0.65;0.65;;;;;;;-0.99;84.12;98184.31;4808644;29;20054;-79
2022/04/07 04:24:06;;;;;;;0.80;0.80;;;;;;;-0.92;83.95;98175.44;4810541;29;20061;-79
2022/04/07 04:26:33;;;;;;;0.70;0.70;;;;;;;-0.79;83.31;98180.00;4803024;29;20067;-81
2022/04/07 04:29:00;;;;;;;0.60;0.60;;;;;;;-0.71;82.67;98179.06;4806227;29;20051;-81
2022/04/07 04:31:28;;;;;;;0.60;0.60;;;;;;;-0.67;82.16;98172.38;4810076;29;20054;-83
2022/04/07 04:33:56;;;;;;;0.80;0.80;;;;;;;-0.64;81.47;98177.28;4803570;29;20047;-82
2022/04/07 04:36:23;;;;;;;0.70;0.70;;;;;;;-0.61;81.06;98178.72;4801111;29;20088;-82
2022/04/07 04:38:53;;;;;;;0.80;0.80;;;;;;;-0.52;81.20;98181.03;4806664;29;20057;-81
2022/04/07 04:41:23;;;;;;;0.80;0.80;;;;;;;-0.46;81.02;98180.28;4805715;29;20055;-81
2022/04/07 04:43:50;;;;;;;0.73;0.73;;;;;;;-0.45;80.64;98175.78;4801097;29;20212;-83
2022/04/07 04:46:18;;;;;;;0.70;0.70;;;;;;;-0.47;80.52;98168.03;4805325;29;20111;-82
2022/04/07 04:48:46;;;;;;;0.88;0.88;;;;;;;-0.50;80.42;98179.00;4824149;29;20054;-83
2022/04/07 04:51:15;;;;;;;0.80;0.80;;;;;;;-0.46;80.46;98190.88;4812979;29;20103;-82
2022/04/07 04:53:45;;;;;;;0.70;0.70;;;;;;;-0.37;80.61;98148.31;4805755;29;20584;-81
2022/04/07 04:56:13;;;;;;;0.80;0.80;;;;;;;-0.35;80.50;98186.88;4801198;29;20584;-81
2022/04/07 04:58:40;;;;;;;0.85;0.85;;;;;;;-0.32;80.33;98186.47;4808177;29;20054;-81
2022/04/07 05:01:07;;;;;;;0.70;0.70;;;;;;;-0.17;80.27;98172.28;4806213;29;20070;-81
2022/04/07 05:03:34;;;;;;;0.60;0.60;;;;;;;-0.22;80.29;98167.56;4817778;29;20244;-81
2022/04/07 05:06:26;;;;;;;0.65;0.65;;;;;;;-0.15;80.65;98184.34;4806001;29;20054;-82
2022/04/07 05:08:55;;;;;;;0.75;0.75;;;;;;;-0.21;80.73;98171.84;4815528;29;20076;-83
2022/04/07 05:11:22;;;;;;;0.60;0.60;;;;;;;-0.17;81.07;98173.09;4807609;29;20058;-83
2022/04/07 05:13:52;;;;;;;0.80;0.80;;;;;;;-0.15;81.14;98164.94;4806180;29;20054;-86
2022/04/07 05:16:19;;;;;;;0.60;0.60;;;;;;;-0.24;81.51;98174.88;4807038;29;20541;-82
2022/04/07 05:18:49;;;;;;;0.80;0.80;;;;;;;-0.24;81.91;98172.25;4807709;29;20145;-83
2022/04/07 05:21:16;;;;;;;0.63;0.63;;;;;;;-0.37;82.16;98167.69;4814505;29;20085;-83
2022/04/07 05:23:45;;;;;;;0.65;0.65;;;;;;;-0.30;82.64;98173.84;4815395;29;20058;-83
2022/04/07 05:26:18;;;;;;;0.57;0.57;;;;;;;-0.21;82.55;98174.50;4825572;29;20396;-82
2022/04/07 05:28:45;;;;;;;0.60;0.60;;;;;;;-0.11;82.86;98174.94;4802831;29;20141;-82
2022/04/07 05:31:12;;;;;;;0.90;0.90;;;;;;;-0.08;82.52;98177.22;4809812;29;20501;-82
2022/04/07 05:33:39;;;;;;;0.90;0.90;;;;;;;-0.09;82.33;98167.63;4816163;29;20050;-81
2022/04/07 05:36:12;;;;;;;0.70;0.70;;;;;;;-0.04;82.42;98159.91;4815661;29;20571;-85
2022/04/07 05:38:39;;;;;;;0.80;0.80;;;;;;;-0.05;82.39;98152.97;4814720;29;20309;-82
2022/04/07 05:41:06;;;;;;;0.85;0.85;;;;;;;-0.06;82.30;98138.03;4814165;29;20058;-81
2022/04/07 05:43:33;;;;;;;0.80;0.80;;;;;;;-0.02;82.15;98136.66;4815349;29;20051;-82
2022/04/07 05:46:01;;;;;;;0.75;0.75;;;;;;;0.10;82.31;98154.63;4819049;29;20052;-82
2022/04/07 05:48:28;;;;;;;0.73;0.73;;;;;;;0.15;82.23;98125.66;4819661;29;20078;-82
2022/04/07 05:50:56;;;;;;;0.80;0.80;;;;;;;0.11;81.97;98127.91;4809548;29;20058;-81
2022/04/07 05:53:23;;;;;;;0.90;0.90;;;;;;;0.12;82.30;98128.72;4814896;29;20078;-82
2022/04/07 05:55:54;;;;;;;0.70;0.70;;;;;;;0.08;82.49;98117.72;4821471;29;20050;-81
2022/04/07 05:58:24;;;;;;;0.60;0.60;;;;;;;0.17;83.01;98121.00;4835284;29;20059;-82
2022/04/07 06:00:51;;;;;;;0.70;0.70;;;;;;;0.17;83.11;98105.88;4821226;29;20055;-82
2022/04/07 06:03:21;;;;;;;0.80;0.80;;;;;;;0.15;83.26;98107.94;4815050;29;20058;-81
2022/04/07 06:05:57;;;;;;;0.60;0.60;;;;;;;0.21;83.69;98095.69;4816776;29;20157;-82
2022/04/07 06:08:25;;;;;;;0.80;0.80;;;;;;;0.19;83.65;98092.44;4807732;29;20078;-83
2022/04/07 06:11:00;;;;;;;0.90;0.90;;;;;;;0.12;83.71;98089.75;4809405;29;20058;-84
2022/04/07 06:13:30;;;;;;;0.88;0.88;;;;;;;0.05;83.98;98107.50;4830827;29;20840;-81
2022/04/07 06:15:57;;;;;;;0.80;0.80;;;;;;;0.06;84.17;98103.81;4821416;29;20050;-82
2022/04/07 06:18:24;;;;;;;0.80;0.80;;;;;;;-0.02;84.31;98099.50;4817702;29;20530;-82
2022/04/07 06:20:51;;;;;;;0.88;0.88;;;;;;;-0.10;84.57;98114.75;4804132;29;20567;-83
2022/04/07 06:23:19;;;;;;;0.70;0.70;;;;;;;-0.05;84.70;98086.66;4786708;29;20647;-83
2022/04/07 06:25:48;;;;;;;0.70;0.70;;;;;;;-0.04;84.59;98093.56;4807597;29;20119;-82
2022/04/07 06:28:15;;;;;;;0.75;0.75;;;;;;;-0.09;84.29;98084.59;4805692;29;20103;-80
2022/04/07 06:30:42;;;;;;;0.80;0.80;;;;;;;-0.08;84.53;98092.31;4810506;29;20055;-81
2022/04/07 06:33:10;;;;;;;0.70;0.70;;;;;;;0.05;84.39;98085.44;4806719;29;20145;-80
2022/04/07 06:35:45;;;;;;;0.70;0.70;;;;;;;0.10;84.18;98078.53;4815038;29;20058;-82
2022/04/07 06:38:12;;;;;;;0.80;0.80;;;;;;;0.06;83.97;98055.25;4814999;29;20062;-81
2022/04/07 06:40:39;;;;;;;0.70;0.70;;;;;;;0.07;83.87;98078.91;4808826;29;20061;-81
2022/04/07 06:43:06;;;;;;;0.80;0.80;;;;;;;0.14;83.90;98074.44;4802434;29;20046;-82
2022/04/07 06:45:35;;;;;;;0.80;0.80;;;;;;;0.13;83.69;98072.00;4806940;29;20054;-83
2022/04/07 06:48:03;;;;;;;0.80;0.80;;;;;;;0.07;84.03;98094.84;4806932;29;20058;-81
2022/04/07 06:50:31;;;;;;;0.75;0.75;;;;;;;0.01;84.12;98089.53;4820119;29;20062;-82
2022/04/07 06:53:00;;;;;;;0.68;0.68;;;;;;;0.09;84.27;98054.84;4820157;29;20097;-82
2022/04/07 06:55:28;;;;;;;0.60;0.60;;;;;;;0.12;84.23;98065.88;4824845;29;20444;-80
2022/04/07 06:57:56;;;;;;;0.85;0.85;;;;;;;0.02;83.89;98085.84;4812325;29;20626;-81
2022/04/07 07:00:29;;;;;;;0.70;0.70;;;;;;;-0.06;84.31;98063.78;4817014;29;20143;-82
2022/04/07 07:03:01;;;;;;;0.73;0.73;;;;;;;-0.11;84.36;98076.00;4804910;29;20118;-80
2022/04/07 07:05:31;;;;;;;0.68;0.68;;;;;;;-0.11;84.70;98073.34;4809037;29;20054;-81
2022/04/07 07:08:10;;;;;;;0.60;0.60;;;;;;;-0.05;85.04;98073.38;4815010;29;20148;-82
2022/04/07 07:10:37;;;;;;;0.80;0.80;;;;;;;0.01;84.86;98084.22;4829107;29;20063;-81
2022/04/07 07:13:04;;;;;;;0.75;0.75;;;;;;;0.02;85.24;98091.16;4800599;29;20102;-81
2022/04/07 07:15:32;;;;;;;0.80;0.80;;;;;;;0.03;85.01;98068.91;4806267;29;20135;-81
2022/04/07 07:17:59;;;;;;;0.63;0.63;;;;;;;0.06;84.95;98055.25;4807611;29;20050;-80
2022/04/07 07:20:26;;;;;;;0.80;0.80;;;;;;;0.14;84.90;98057.72;4814281;29;20150;-83
2022/04/07 07:22:54;;;;;;;0.80;0.80;;;;;;;0.13;84.83;98074.66;4802406;29;20047;-84
2022/04/07 07:25:23;;;;;;;0.85;0.85;;;;;;;0.20;84.87;98062.22;4802477;29;20172;-81
2022/04/07 07:27:50;;;;;;;0.75;0.75;;;;;;;0.26;85.00;98060.59;4802903;29;20057;-81
2022/04/07 07:30:18;;;;;;;0.95;0.95;;;;;;;0.40;84.91;98062.25;4805195;29;20166;-82
2022/04/07 07:32:47;;;;;;;0.80;0.80;;;;;;;0.46;84.63;98032.25;4808865;29;20141;-84
2022/04/07 07:35:17;;;;;;;0.75;0.75;;;;;;;0.43;84.54;98040.59;4819621;29;20145;-81
2022/04/07 07:37:51;;;;;;;0.80;0.80;;;;;;;0.37;84.55;98060.81;4815049;29;20065;-80
2022/04/07 07:40:21;;;;;;;;;;;;;;;0.38;84.52;98049.19;4804286;29;20523;-82
2022/04/07 07:42:49;;;;;;;0.80;0.80;;;;;;;0.42;84.74;98050.41;4805939;29;19929;-82
2022/04/07 07:45:18;;;;;;;0.70;0.70;;;;;;;0.50;84.68;98041.41;4805979;29;20051;-82
2022/04/07 07:48:05;;;;;;;0.77;0.77;;;;;;;0.56;84.70;98043.28;4806215;29;20077;-80
2022/04/07 07:50:32;;;;;;;0.73;0.73;;;;;;;0.49;84.75;98042.47;4805046;29;20065;-82
2022/04/07 07:52:59;;;;;;;0.80;0.80;;;;;;;0.49;84.62;98039.81;4803420;29;20473;-82
2022/04/07 07:55:26;;;;;;;0.80;0.80;;;;;;;0.58;84.91;98038.59;4818821;29;20103;-82
2022/04/07 07:57:53;;;;;;;0.82;0.82;;;;;;;0.59;84.90;98052.69;4804903;29;20484;-82
2022/04/07 08:00:23;;;;;;;0.70;0.70;;;;;;;0.55;84.83;98044.28;4804914;29;20136;-82
2022/04/07 08:02:50;;;;;;;0.60;0.60;;;;;;;0.53;85.24;98035.72;4804007;29;20057;-83
2022/04/07 08:05:18;;;;;;;0.77;0.77;;;;;;;0.63;85.29;98037.94;4803114;29;20528;-83
2022/04/07 08:07:45;;;;;;;0.80;0.80;;;;;;;0.74;85.31;98023.25;4804329;29;20480;-83
2022/04/07 08:10:12;;;;;;;0.70;0.70;;;;;;;0.71;85.01;98031.63;4804577;29;20058;-83
2022/04/07 08:12:40;;;;;;;0.70;0.70;;;;;;;0.74;85.12;98025.91;4819304;29;20094;-82
2022/04/07 08:15:09;;;;;;;0.80;0.80;;;;;;;0.75;85.14;98023.03;4805381;29;20085;-82
2022/04/07 08:17:36;;;;;;;0.82;0.82;;;;;;;0.68;85.06;98026.72;4803642;29;20058;-82
2022/04/07 08:20:08;;;;;;;0.75;0.75;;;;;;;0.76;85.37;98024.69;4804448;29;20404;-81
2022/04/07 08:22:38;;;;;;;0.70;0.70;;;;;;;0.76;85.29;98022.03;4803124;29;20055;-82
2022/04/07 08:25:05;;;;;;;0.90;0.90;;;;;;;0.76;85.50;98013.22;4804763;29;20668;-81
2022/04/07 08:27:32;;;;;;;0.70;0.70;;;;;;;0.78;85.60;98009.34;4814913;29;20078;-83
2022/04/07 08:30:00;;;;;;;0.70;0.70;;;;;;;0.79;85.99;98011.00;4471690;29;9999639;-80
2022/04/07 08:32:31;;;;;;;0.80;0.80;;;;;;;0.85;85.97;98018.13;4811584;29;20047;-81
2022/04/07 08:35:00;;;;;;;0.80;0.80;;;;;;;0.90;85.76;98004.22;4808087;29;20057;-82
2022/04/07 08:37:29;;;;;;;0.90;0.90;;;;;;;0.90;85.79;97995.44;4801488;29;20472;-82
2022/04/07 08:40:05;;;;;;;0.70;0.70;;;;;;;0.79;85.90;98003.03;4801358;29;20086;-80
2022/04/07 08:42:34;;;;;;;0.80;0.80;;;;;;;0.81;86.22;98005.47;4808445;29;20057;-82
2022/04/07 08:45:03;;;;;;;0.70;0.70;;;;;;;0.90;86.31;97992.78;4816673;29;20057;-80
2022/04/07 08:47:33;;;;;;;0.90;0.90;;;;;;;0.98;86.21;98003.19;4811004;29;20089;-80
2022/04/07 08:50:03;;;;;;;0.80;0.80;;;;;;;1.01;86.18;97997.47;4805168;29;20047;-79
2022/04/07 08:52:32;;;;;;;0.70;0.70;;;;;;;1.15;85.73;97979.66;4799963;29;20053;-80
2022/04/07 08:55:00;;;;;;;0.70;0.70;;;;;;;1.23;85.80;97966.94;4812801;29;20062;-81
2022/04/07 08:57:31;;;;;;;0.80;0.80;;;;;;;1.24;85.42;97978.38;4810687;29;20089;-81
2022/04/07 08:59:58;;;;;;;0.77;0.77;;;;;;;1.29;85.61;97975.91;4821945;29;20081;-81
2022/04/07 09:02:25;;;;;;;0.80;0.80;;;;;;;1.36;85.46;97976.72;4818551;29;20050;-81
2022/04/07 09:04:58;;;;;;;0.70;0.70;;;;;;;1.41;84.94;97968.09;4810880;29;20527;-82
2022/04/07 09:07:33;;;;;;;0.75;0.75;;;;;;;1.40;84.99;97974.47;4802694;29;20054;-81
2022/04/07 09:10:05;;;;;;;0.80;0.80;;;;;;;1.38;85.11;97973.84;4793052;29;20480;-82
2022/04/07 09:12:34;;;;;;;0.73;0.73;;;;;;;1.39;84.92;97978.94;4812337;29;20051;-83
2022/04/07 09:15:01;;;;;;;0.80;0.80;;;;;;;1.40;85.03;97967.28;4817300;29;20086;-81
2022/04/07 09:17:30;;;;;;;0.80;0.80;;;;;;;1.34;84.98;97965.47;4817026;29;20441;-81
2022/04/07 09:20:08;;;;;;;0.70;0.70;;;;;;;1.38;85.39;97974.66;4823052;29;20059;-82
2022/04/07 09:22:36;;;;;;;0.82;0.82;;;;;;;1.45;85.27;97969.34;4815045;29;20152;-82
2022/04/07 09:25:26;;;;;;;0.60;0.60;;;;;;;1.56;85.39;97958.00;4813435;29;20527;-83
2022/04/07 09:27:57;;;;;;;0.75;0.75;;;;;;;1.65;85.07;97966.59;4819674;29;20055;-82
2022/04/07 09:30:25;;;;;;;0.70;0.70;;;;;;;1.68;84.78;97953.66;4815306;29;20512;-81
2022/04/07 09:32:52;;;;;;;0.60;0.60;;;;;;;1.70;84.58;97962.25;4811954;29;20050;-83
2022/04/07 09:35:24;;;;;;;0.73;0.73;;;;;;;1.81;84.63;97952.78;4827279;29;20133;-82
2022/04/07 09:37:51;;;;;;;0.80;0.80;;;;;;;1.90;84.39;97950.66;4816042;29;20454;-82
2022/04/07 09:40:18;;;;;;;0.80;0.80;;;;;;;1.90;84.33;97948.00;4811383;29;20145;-80
2022/04/07 09:42:56;;;;;;;0.73;0.73;;;;;;;1.99;84.29;97944.06;4825364;29;20131;-84
2022/04/07 09:45:24;;;;;;;0.60;0.60;;;;;;;2.03;84.06;97947.13;4803633;29;20435;-84
2022/04/07 09:47:51;;;;;;;0.80;0.80;;;;;;;2.13;83.98;97936.81;4806261;29;20058;-82
2022/04/07 09:50:23;;;;;;;0.75;0.75;;;;;;;2.16;83.74;97937.19;4819768;29;20090;-81
2022/04/07 09:53:04;;;;;;;0.70;0.70;;;;;;;2.15;83.50;97930.25;4805279;29;20055;-82
2022/04/07 09:55:43;;;;;;;0.70;0.70;;;;;;;2.12;83.44;97935.16;4806254;29;20123;-81
2022/04/07 09:58:12;;;;;;;0.60;0.60;;;;;;;2.12;83.68;97932.50;4816703;29;20082;-82
2022/04/07 10:00:40;;;;;;;0.80;0.80;;;;;;;2.26;83.70;97922.56;4822416;29;20088;-82
2022/04/07 10:03:09;;;;;;;0.75;0.75;;;;;;;2.27;83.65;97932.19;4815227;29;20074;-81
2022/04/07 10:05:38;;;;;;;0.80;0.80;;;;;;;2.31;83.62;97933.38;4823723;29;20058;-82
2022/04/07 10:08:06;;;;;;;0.70;0.70;;;;;;;2.35;83.31;97916.75;4816234;29;20054;-81
2022/04/07 10:10:34;;;;;;;0.90;0.90;;;;;;;2.42;83.39;97905.22;4810689;29;20545;-82
2022/04/07 10:13:02;;;;;;;0.65;0.65;;;;;;;2.39;83.30;97909.97;4811639;29;20059;-81
2022/04/07 10:15:29;;;;;;;0.75;0.75;;;;;;;2.38;83.47;97915.50;4812400;29;20058;-81
2022/04/07 10:18:00;;;;;;;0.70;0.70;;;;;;;2.51;83.62;97926.03;4828969;29;20051;-81
2022/04/07 10:20:34;;;;;;;0.75;0.75;;;;;;;2.57;83.54;97919.81;4811978;29;20054;-81
2022/04/07 10:23:32;;;;;;;0.70;0.70;;;;;;;2.65;83.52;97921.41;4812472;29;20532;-82
2022/04/07 10:26:01;;;;;;;0.70;0.70;;;;;;;2.62;83.23;97918.38;4805760;29;20074;-81
2022/04/07 10:28:28;;;;;;;0.70;0.70;;;;;;;2.67;83.34;97931.84;4819463;29;20120;-81
2022/04/07 10:31:12;;;;;;;0.60;0.60;;;;;;;2.73;83.24;97912.31;4824384;29;20062;-82
2022/04/07 10:33:43;;;;;;;0.70;0.70;;;;;;;2.73;83.52;97929.09;4826782;29;20069;-81
2022/04/07 10:36:16;;;;;;;0.70;0.70;;;;;;;2.76;83.43;97922.50;4826972;29;20054;-80
2022/04/07 10:38:48;;;;;;;0.70;0.70;;;;;;;2.86;83.42;97912.19;4821841;29;20408;-81
2022/04/07 10:41:37;;;;;;;0.80;0.80;;;;;;;3.00;83.25;97897.66;4820891;29;20576;-81
2022/04/07 10:44:17;;;;;;;0.70;0.70;;;;;;;3.06;83.10;97905.78;4816021;29;20055;-80
2022/04/07 10:47:01;;;;;;;0.73;0.73;;;;;;;3.17;82.84;97902.41;4807631;29;20431;-81
2022/04/07 10:49:33;;;;;;;0.80;0.80;;;;;;;3.29;82.65;97905.09;4815971;29;20058;-81
2022/04/07 10:52:05;;;;;;;0.77;0.77;;;;;;;3.45;82.57;97907.16;4804564;29;20059;-81
2022/04/07 10:54:33;;;;;;;0.65;0.65;;;;;;;3.48;82.00;97896.03;4814845;29;20097;-82
2022/04/07 10:57:01;;;;;;;0.70;0.70;;;;;;;3.50;82.09;97901.97;4814292;29;20445;-81
2022/04/07 10:59:34;;;;;;;0.70;0.70;;;;;;;3.56;81.91;97908.25;4816176;29;20533;-80
2022/04/07 11:02:06;;;;;;;0.68;0.68;;;;;;;3.63;81.84;97903.66;4811395;29;20085;-82
2022/04/07 11:05:10;;;;;;;0.70;0.70;;;;;;;3.69;81.59;97886.72;4805572;29;20436;-83
2022/04/07 11:07:51;;;;;;;0.70;0.70;;;;;;;3.71;81.43;97875.81;4805390;29;20538;-81
2022/04/07 11:10:48;;;;;;;0.80;0.80;;;;;;;3.76;81.69;97875.97;4812115;29;20054;-81
2022/04/07 11:13:15;;;;;;;0.80;0.80;;;;;;;3.77;81.53;97872.22;4809768;29;20456;-81
2022/04/07 11:15:49;;;;;;;0.77;0.77;;;;;;;3.90;81.38;97874.72;4821370;29;20058;-79
2022/04/07 11:18:44;;;;;;;0.70;0.70;;;;;;;4.06;80.94;97862.56;4808008;29;20450;-80
2022/04/07 11:21:14;;;;;;;0.70;0.70;;;;;;;4.15;80.67;97855.81;4815423;29;20054;-81
2022/04/07 11:24:12;;;;;;;0.60;0.60;;;;;;;4.13;80.50;97853.41;4822616;29;20145;-81
2022/04/07 11:26:37;;;;;;;0.60;0.60;;;;;;;4.11;80.56;97844.00;4823078;29;20062;-80
2022/04/07 11:29:12;;;;;;;0.70;0.70;;;;;;;4.11;80.51;97842.13;4814989;29;20054;-79
2022/04/07 11:31:43;;;;;;;0.60;0.60;;;;;;;4.15;80.63;97850.47;4819715;29;20082;-81
2022/04/07 11:34:51;;;;;;;0.70;0.70;;;;;;;4.18;80.49;97850.03;4825179;29;20074;-82
2022/04/07 11:37:19;;;;;;;0.70;0.70;;;;;;;4.20;80.55;97858.59;4820188;29;20170;-79
2022/04/07 11:39:51;;;;;;;0.60;0.60;;;;;;;4.38;80.35;97855.03;4828737;29;20055;-82
2022/04/07 11:42:20;;;;;;;0.70;0.70;;;;;;;4.58;79.87;97851.97;4816676;29;20093;-83
2022/04/07 11:45:00;;;;;;;0.70;0.70;;;;;;;4.76;79.16;97846.50;4814207;29;20116;-81
2022/04/07 11:47:33;;;;;;;0.70;0.70;;;;;;;4.94;78.58;97852.75;4819004;29;20055;-80
2022/04/07 11:50:04;;;;;;;0.70;0.70;;;;;;;5.12;78.04;97857.13;4826539;29;20085;-81